Time,TemperatureF,DewpointF,PressureIn,WindDirection,WindDirectionDegrees,WindSpeedMPH,WindSpeedGustMPH,Humidity,HourlyPrecipIn,Conditions,Clouds,dailyrainin,SolarRadiationWatts/m^2,SoftwareType,DateUTC
2013-10-16 00:04:00,57.0,55.0,-100.00,ESE,118,1.0,4.0,94,0.00,,,0.00,0.000000,,2013-10-16 04:04:00,
2013-10-16 00:14:00,57.0,55.0,-100.00,ESE,118,1.0,4.0,94,0.00,,,0.00,0.000000,,2013-10-16 04:14:00,
2013-10-16 00:44:00,54.0,51.0,-100.00,East,96,1.0,3.0,89,0.00,,,0.00,0.000000,,2013-10-16 04:44:00,
2013-10-16 00:54:00,54.0,51.0,-100.00,East,96,1.0,3.0,89,0.00,,,0.00,0.000000,,2013-10-16 04:54:00,
2013-10-16 01:04:00,54.0,51.0,-100.00,East,96,1.0,3.0,89,0.00,,,0.00,0.000000,,2013-10-16 05:04:00,
2013-10-16 01:13:00,54.0,51.0,-100.00,East,96,1.0,3.0,89,0.00,,,0.00,0.000000,,2013-10-16 05:13:00,
2013-10-16 01:43:00,53.0,50.0,-100.00,East,88,1.0,3.0,90,0.00,,,0.00,0.000000,,2013-10-16 05:43:00,
2013-10-16 01:53:00,53.0,50.0,-100.00,East,88,1.0,3.0,90,0.00,,,0.00,0.000000,,2013-10-16 05:53:00,
2013-10-16 02:03:00,53.0,50.0,-100.00,East,88,1.0,3.0,90,0.00,,,0.00,0.000000,,2013-10-16 06:03:00,
2013-10-16 02:12:00,53.0,50.0,-100.00,East,88,1.0,3.0,90,0.00,,,0.00,0.000000,,2013-10-16 06:12:00,
2013-10-16 02:43:00,54.0,51.0,-100.00,ESE,115,1.0,3.0,90,0.00,,,0.00,0.000000,,2013-10-16 06:43:00,
2013-10-16 02:52:00,54.0,51.0,-100.00,ESE,115,1.0,3.0,90,0.00,,,0.00,0.000000,,2013-10-16 06:52:00,
2013-10-16 03:02:00,54.0,51.0,-100.00,ESE,115,1.0,3.0,90,0.00,,,0.00,0.000000,,2013-10-16 07:02:00,
2013-10-16 03:12:00,54.0,51.0,-100.00,ESE,115,1.0,3.0,90,0.00,,,0.00,0.000000,,2013-10-16 07:12:00,
2013-10-16 03:42:00,54.0,51.0,-100.00,WNW,283,1.0,3.0,88,0.00,,,0.00,0.000000,,2013-10-16 07:42:00,
2013-10-16 03:53:00,54.0,51.0,-100.00,WNW,283,1.0,3.0,88,0.00,,,0.00,0.000000,,2013-10-16 07:53:00,
2013-10-16 04:02:00,54.0,51.0,-100.00,WNW,283,1.0,3.0,88,0.00,,,0.00,0.000000,,2013-10-16 08:02:00,
2013-10-16 04:11:00,54.0,51.0,-100.00,WNW,283,1.0,3.0,88,0.00,,,0.00,0.000000,,2013-10-16 08:11:00,
2013-10-16 04:42:00,54.0,50.0,-100.00,SSW,199,1.0,2.0,87,0.00,,,0.00,0.000000,,2013-10-16 08:42:00,
2013-10-16 04:52:00,54.0,50.0,-100.00,SSW,199,1.0,2.0,87,0.00,,,0.00,0.000000,,2013-10-16 08:52:00,
2013-10-16 05:02:00,54.0,50.0,-100.00,SSW,199,1.0,2.0,87,0.00,,,0.00,0.000000,,2013-10-16 09:02:00,
2013-10-16 05:11:00,54.0,50.0,-100.00,SSW,199,1.0,2.0,87,0.00,,,0.00,0.000000,,2013-10-16 09:11:00,
2013-10-16 05:43:00,52.0,49.0,-100.00,ESE,109,0.0,3.0,89,0.00,,,0.00,0.000000,,2013-10-16 09:43:00,
2013-10-16 05:54:00,52.0,49.0,-100.00,ESE,109,0.0,3.0,89,0.00,,,0.00,0.000000,,2013-10-16 09:54:00,
2013-10-16 06:03:00,52.0,49.0,-100.00,ESE,109,0.0,3.0,89,0.00,,,0.00,0.000000,,2013-10-16 10:03:00,
2013-10-16 06:13:00,52.0,49.0,-100.00,ESE,109,0.0,3.0,89,0.00,,,0.00,0.000000,,2013-10-16 10:13:00,
2013-10-16 06:42:00,52.0,50.0,-100.00,South,183,1.0,3.0,92,0.00,,,0.00,0.000000,,2013-10-16 10:42:00,
2013-10-16 06:53:00,52.0,50.0,-100.00,South,183,1.0,3.0,92,0.00,,,0.00,0.000000,,2013-10-16 10:53:00,
2013-10-16 07:03:00,52.0,50.0,-100.00,South,183,1.0,3.0,92,0.00,,,0.00,0.000000,,2013-10-16 11:03:00,
2013-10-16 07:12:00,52.0,50.0,-100.00,South,183,1.0,3.0,92,0.00,,,0.00,0.000000,,2013-10-16 11:12:00,
2013-10-16 07:42:00,54.0,52.0,-100.00,ESE,118,0.0,2.0,92,0.00,,,0.00,0.000000,,2013-10-16 11:42:00,
2013-10-16 07:52:00,54.0,52.0,-100.00,ESE,118,0.0,2.0,92,0.00,,,0.00,0.000000,,2013-10-16 11:52:00,
2013-10-16 08:02:00,54.0,52.0,-100.00,ESE,118,0.0,2.0,92,0.00,,,0.00,0.000000,,2013-10-16 12:02:00,
2013-10-16 08:12:00,54.0,52.0,-100.00,ESE,118,0.0,2.0,92,0.00,,,0.00,0.000000,,2013-10-16 12:12:00,
2013-10-16 08:43:00,55.0,53.0,-100.00,SSE,147,1.0,2.0,92,0.00,,,0.00,6.000000,,2013-10-16 12:43:00,
2013-10-16 08:52:00,55.0,53.0,-100.00,SSE,147,1.0,2.0,92,0.00,,,0.00,6.000000,,2013-10-16 12:52:00,
2013-10-16 09:02:00,55.0,53.0,-100.00,SSE,147,1.0,2.0,92,0.00,,,0.00,6.000000,,2013-10-16 13:02:00,
2013-10-16 09:12:00,55.0,53.0,-100.00,SSE,147,1.0,2.0,92,0.00,,,0.00,6.000000,,2013-10-16 13:12:00,
2013-10-16 09:42:00,58.0,53.0,-100.00,East,89,1.0,3.0,84,0.00,,,0.00,47.000000,,2013-10-16 13:42:00,
2013-10-16 09:52:00,58.0,53.0,-100.00,East,89,1.0,3.0,84,0.00,,,0.00,47.000000,,2013-10-16 13:52:00,
2013-10-16 10:02:00,58.0,53.0,-100.00,East,89,1.0,3.0,84,0.00,,,0.00,47.000000,,2013-10-16 14:02:00,
2013-10-16 10:11:00,58.0,53.0,-100.00,East,89,1.0,3.0,84,0.00,,,0.00,47.000000,,2013-10-16 14:11:00,
2013-10-16 10:42:00,64.0,56.0,-100.00,SW,234,1.0,4.0,74,0.00,,,0.00,153.000000,,2013-10-16 14:42:00,
2013-10-16 10:52:00,64.0,56.0,-100.00,SW,234,1.0,4.0,74,0.00,,,0.00,153.000000,,2013-10-16 14:52:00,
2013-10-16 11:02:00,64.0,56.0,-100.00,SW,234,1.0,4.0,74,0.00,,,0.00,153.000000,,2013-10-16 15:02:00,
2013-10-16 11:11:00,64.0,56.0,-100.00,SW,234,1.0,4.0,74,0.00,,,0.00,153.000000,,2013-10-16 15:11:00,
2013-10-16 11:44:00,67.0,52.0,-100.00,West,259,3.0,6.0,59,0.00,,,0.00,194.000000,,2013-10-16 15:44:00,
2013-10-16 11:53:00,67.0,52.0,-100.00,West,259,3.0,6.0,59,0.00,,,0.00,194.000000,,2013-10-16 15:53:00,
2013-10-16 12:03:00,67.0,52.0,-100.00,West,259,3.0,6.0,59,0.00,,,0.00,194.000000,,2013-10-16 16:03:00,
2013-10-16 12:13:00,67.0,52.0,-100.00,West,259,3.0,6.0,59,0.00,,,0.00,194.000000,,2013-10-16 16:13:00,
2013-10-16 12:42:00,69.0,53.0,-100.00,WSW,255,5.0,9.0,57,0.00,,,0.00,344.000000,,2013-10-16 16:42:00,
2013-10-16 12:53:00,69.0,53.0,-100.00,WSW,255,5.0,9.0,57,0.00,,,0.00,344.000000,,2013-10-16 16:53:00,
2013-10-16 13:02:00,69.0,53.0,-100.00,WSW,255,5.0,9.0,57,0.00,,,0.00,344.000000,,2013-10-16 17:02:00,
2013-10-16 13:12:00,69.0,53.0,-100.00,WSW,255,5.0,9.0,57,0.00,,,0.00,344.000000,,2013-10-16 17:12:00,
2013-10-16 13:52:00,69.0,54.0,-100.00,West,262,6.0,10.0,58,0.00,,,0.00,262.000000,,2013-10-16 17:52:00,
2013-10-16 14:02:00,69.0,54.0,-100.00,West,262,6.0,10.0,58,0.00,,,0.00,262.000000,,2013-10-16 18:02:00,
2013-10-16 14:11:00,69.0,54.0,-100.00,West,262,6.0,10.0,58,0.00,,,0.00,262.000000,,2013-10-16 18:11:00,
2013-10-16 14:42:00,70.0,55.0,-100.00,West,265,6.0,11.0,58,0.00,,,0.00,263.000000,,2013-10-16 18:42:00,
2013-10-16 14:52:00,70.0,55.0,-100.00,West,265,6.0,11.0,58,0.00,,,0.00,263.000000,,2013-10-16 18:52:00,
2013-10-16 15:02:00,70.0,55.0,-100.00,West,265,6.0,11.0,58,0.00,,,0.00,263.000000,,2013-10-16 19:02:00,
2013-10-16 15:11:00,70.0,55.0,-100.00,West,265,6.0,11.0,58,0.00,,,0.00,263.000000,,2013-10-16 19:11:00,
2013-10-16 15:42:00,69.0,55.0,-100.00,West,262,5.0,10.0,61,0.00,,,0.00,131.000000,,2013-10-16 19:42:00,
2013-10-16 15:52:00,69.0,55.0,-100.00,West,262,5.0,10.0,61,0.00,,,0.00,131.000000,,2013-10-16 19:52:00,
2013-10-16 16:03:00,69.0,55.0,-100.00,West,262,5.0,10.0,61,0.00,,,0.00,131.000000,,2013-10-16 20:03:00,
2013-10-16 16:12:00,69.0,55.0,-100.00,West,262,5.0,10.0,61,0.00,,,0.00,131.000000,,2013-10-16 20:12:00,
2013-10-16 16:43:00,69.0,55.0,-100.00,West,262,5.0,10.0,62,0.00,,,0.00,111.000000,,2013-10-16 20:43:00,
2013-10-16 16:52:00,69.0,55.0,-100.00,West,262,5.0,10.0,62,0.00,,,0.00,111.000000,,2013-10-16 20:52:00,
2013-10-16 17:02:00,69.0,55.0,-100.00,West,262,5.0,10.0,62,0.00,,,0.00,111.000000,,2013-10-16 21:02:00,
2013-10-16 17:11:00,69.0,55.0,-100.00,West,262,5.0,10.0,62,0.00,,,0.00,111.000000,,2013-10-16 21:11:00,
2013-10-16 17:44:00,68.0,55.0,-100.00,WSW,247,3.0,9.0,64,0.00,,,0.00,65.000000,,2013-10-16 21:44:00,
2013-10-16 17:54:00,68.0,55.0,-100.00,WSW,247,3.0,9.0,64,0.00,,,0.00,65.000000,,2013-10-16 21:54:00,
2013-10-16 18:04:00,68.0,55.0,-100.00,WSW,247,3.0,9.0,64,0.00,,,0.00,65.000000,,2013-10-16 22:04:00,
2013-10-16 18:14:00,68.0,55.0,-100.00,WSW,247,3.0,9.0,64,0.00,,,0.00,65.000000,,2013-10-16 22:14:00,
2013-10-16 18:42:00,66.0,55.0,-100.00,West,266,5.0,9.0,68,0.00,,,0.00,13.000000,,2013-10-16 22:42:00,
2013-10-16 18:54:00,66.0,55.0,-100.00,West,266,5.0,9.0,68,0.00,,,0.00,13.000000,,2013-10-16 22:54:00,
2013-10-16 19:03:00,66.0,55.0,-100.00,West,266,5.0,9.0,68,0.00,,,0.00,13.000000,,2013-10-16 23:03:00,
2013-10-16 19:12:00,66.0,55.0,-100.00,West,266,5.0,9.0,68,0.00,,,0.00,13.000000,,2013-10-16 23:12:00,
2013-10-16 19:42:00,62.0,59.0,-100.00,West,263,4.0,10.0,90,0.00,,,0.00,1.000000,,2013-10-16 23:42:00,
2013-10-16 19:53:00,62.0,59.0,-100.00,West,263,4.0,10.0,90,0.00,,,0.00,1.000000,,2013-10-16 23:53:00,
2013-10-16 20:02:00,62.0,59.0,-100.00,West,263,4.0,10.0,90,0.00,,,0.00,1.000000,,2013-10-17 00:02:00,
2013-10-16 20:12:00,62.0,59.0,-100.00,West,263,4.0,10.0,90,0.00,,,0.00,1.000000,,2013-10-17 00:12:00,
2013-10-16 20:42:00,62.0,60.0,-100.00,West,274,2.0,5.0,92,0.01,,,0.01,0.000000,,2013-10-17 00:42:00,
2013-10-16 20:52:00,62.0,60.0,-100.00,West,274,2.0,5.0,92,0.01,,,0.01,0.000000,,2013-10-17 00:52:00,
2013-10-16 21:02:00,62.0,60.0,-100.00,West,274,2.0,5.0,92,0.01,,,0.01,0.000000,,2013-10-17 01:02:00,
2013-10-16 21:12:00,62.0,60.0,-100.00,West,274,2.0,5.0,92,0.01,,,0.01,0.000000,,2013-10-17 01:12:00,
2013-10-16 21:43:00,62.0,60.0,-100.00,SW,224,1.0,4.0,93,0.00,,,0.01,0.000000,,2013-10-17 01:43:00,
2013-10-16 21:53:00,62.0,60.0,-100.00,SW,224,1.0,4.0,93,0.00,,,0.01,0.000000,,2013-10-17 01:53:00,
2013-10-16 22:03:00,62.0,60.0,-100.00,SW,224,1.0,4.0,93,0.00,,,0.01,0.000000,,2013-10-17 02:03:00,
2013-10-16 22:12:00,62.0,60.0,-100.00,SW,224,1.0,4.0,93,0.00,,,0.01,0.000000,,2013-10-17 02:12:00,
2013-10-16 22:53:00,62.0,60.0,-100.00,WSW,254,2.0,5.0,94,0.01,,,0.02,0.000000,,2013-10-17 02:53:00,
2013-10-16 23:02:00,62.0,60.0,-100.00,WSW,254,2.0,5.0,94,0.01,,,0.02,0.000000,,2013-10-17 03:02:00,
2013-10-16 23:12:00,62.0,60.0,-100.00,WSW,254,2.0,5.0,94,0.01,,,0.02,0.000000,,2013-10-17 03:12:00,
2013-10-16 23:45:00,62.0,59.0,-100.00,WSW,258,4.0,6.0,91,0.00,,,0.02,0.000000,,2013-10-17 03:45:00,
2013-10-16 23:54:00,62.0,59.0,-100.00,WSW,258,4.0,6.0,91,0.00,,,0.02,0.000000,,2013-10-17 03:54:00,